Time;durP1;ratioP1;P1;durP2;ratioP2;P2;SDS_P1;SDS_P2;PMS_P1;PMS_P2;Temp;Humidity;BMP_temperature;BMP_pressure;BME280_temperature;BME280_humidity;BME280_pressure;Samples;Min_cycle;Max_cycle;Signal;HPM_P1;HPM_P2
2021/09/09 00:00:26;;;;;;;16.90;15.23;;;14.90;1.00;;;;;;5120012;28;20463;-55
2021/09/09 00:02:54;;;;;;;18.70;16.80;;;14.90;1.00;;;;;;5120708;28;20487;-54
2021/09/09 00:05:21;;;;;;;18.63;16.83;;;14.80;1.00;;;;;;5120220;28;20945;-56
2021/09/09 00:07:48;;;;;;;17.33;15.53;;;14.80;1.00;;;;;;5120601;28;20519;-55
2021/09/09 00:10:15;;;;;;;16.90;15.33;;;14.70;1.00;;;;;;5119807;28;20829;-54
2021/09/09 00:12:42;;;;;;;17.80;15.83;;;14.70;1.00;;;;;;5120286;28;20460;-56
2021/09/09 00:15:14;;;;;;;16.77;15.17;;;14.70;1.00;;;;;;5119826;28;20483;-56
2021/09/09 00:17:41;;;;;;;17.67;15.97;;;14.70;14.20;;;;;;5120203;28;20523;-55
2021/09/09 00:20:11;;;;;;;16.40;14.77;;;14.60;1.00;;;;;;5119476;28;20559;-56
2021/09/09 00:22:38;;;;;;;16.70;15.00;;;14.50;49.20;;;;;;5119857;27;20550;-56
2021/09/09 00:25:06;;;;;;;17.13;15.37;;;14.50;49.80;;;;;;5119903;28;20546;-54
2021/09/09 00:27:33;;;;;;;17.27;15.57;;;14.40;99.90;;;;;;5119933;28;20483;-56
2021/09/09 00:30:01;;;;;;;18.30;16.50;;;14.40;99.90;;;;;;5120041;27;20502;-54
2021/09/09 00:32:28;;;;;;;18.83;16.50;;;14.40;99.90;;;;;;5119585;28;20524;-55
2021/09/09 00:34:58;;;;;;;18.57;16.77;;;14.40;99.90;;;;;;5119650;28;20491;-56
2021/09/09 00:37:26;;;;;;;17.10;15.50;;;14.30;99.90;;;;;;5119644;28;20506;-56
2021/09/09 00:39:53;;;;;;;19.80;16.40;;;14.30;99.90;;;;;;5119709;28;20482;-54
2021/09/09 00:42:20;;;;;;;18.20;16.50;;;14.30;99.90;;;;;;5119427;28;20886;-55
2021/09/09 00:44:47;;;;;;;18.87;17.17;;;14.40;99.90;;;;;;5119247;28;20560;-50
2021/09/09 00:47:17;;;;;;;21.17;17.13;;;14.30;99.90;;;;;;5119502;28;20816;-52
2021/09/09 00:49:45;;;;;;;16.67;14.97;;;14.20;99.90;;;;;;5119593;28;20459;-53
2021/09/09 00:52:13;;;;;;;17.97;16.23;;;14.30;99.90;;;;;;5118932;28;20516;-52
2021/09/09 00:54:43;;;;;;;17.37;15.47;;;14.30;1.00;;;;;;5119233;28;20487;-55
2021/09/09 00:57:11;;;;;;;17.43;15.90;;;14.30;99.90;;;;;;5119431;28;20517;-52
2021/09/09 00:59:41;;;;;;;17.03;15.23;;;14.40;99.90;;;;;;5119479;28;20930;-50
2021/09/09 01:02:09;;;;;;;17.60;16.00;;;14.40;99.90;;;;;;5119239;28;20512;-50
2021/09/09 01:04:37;;;;;;;16.97;15.47;;;14.40;99.90;;;;;;5119278;28;20532;-56
2021/09/09 01:07:04;;;;;;;18.87;15.90;;;14.50;99.90;;;;;;5119116;28;20512;-56
2021/09/09 01:09:32;;;;;;;17.00;15.20;;;14.50;99.90;;;;;;5119301;28;20479;-56
2021/09/09 01:12:00;;;;;;;18.67;16.87;;;14.40;90.20;;;;;;5119224;28;20514;-56
2021/09/09 01:14:27;;;;;;;16.80;15.30;;;14.40;73.80;;;;;;5118664;28;20550;-56
2021/09/09 01:16:54;;;;;;;17.43;15.83;;;14.30;99.90;;;;;;5118564;28;20495;-56
2021/09/09 01:19:21;;;;;;;15.77;14.27;;;14.40;99.90;;;;;;5119304;28;20534;-56
2021/09/09 01:21:47;;;;;;;17.37;15.67;;;14.50;99.90;;;;;;5118968;28;20563;-56
2021/09/09 01:24:17;;;;;;;16.97;15.00;;;14.40;52.70;;;;;;5119158;28;20502;-56
2021/09/09 01:26:50;;;;;;;16.87;15.10;;;14.40;27.00;;;;;;5119053;28;20546;-56
2021/09/09 01:29:17;;;;;;;16.43;14.73;;;14.30;34.90;;;;;;5118712;28;20507;-56
2021/09/09 01:31:44;;;;;;;16.43;14.63;;;14.30;97.60;;;;;;5118433;28;20765;-56
2021/09/09 01:34:12;;;;;;;16.60;15.10;;;14.30;89.90;;;;;;5118195;28;20554;-54
2021/09/09 01:36:39;;;;;;;15.60;14.10;;;14.30;72.40;;;;;;5118495;28;20513;-55
2021/09/09 01:39:06;;;;;;;20.37;16.17;;;14.30;39.40;;;;;;5118712;28;20582;-55
2021/09/09 01:41:34;;;;;;;16.83;15.20;;;14.30;39.80;;;;;;5118876;28;20524;-57
2021/09/09 01:44:01;;;;;;;14.83;13.43;;;14.30;21.60;;;;;;5118181;28;21002;-51
2021/09/09 01:46:28;;;;;;;17.33;15.40;;;14.30;26.50;;;;;;5117795;28;20484;-53
2021/09/09 01:48:56;;;;;;;16.97;15.47;;;14.30;1.00;;;;;;5118443;28;20492;-54
2021/09/09 01:51:26;;;;;;;19.83;15.97;;;14.40;1.00;;;;;;5118027;28;20470;-50
2021/09/09 01:53:56;;;;;;;17.13;14.80;;;14.30;3.20;;;;;;5118399;28;20559;-57
2021/09/09 01:56:23;;;;;;;16.53;14.83;;;14.20;12.40;;;;;;5118260;28;20502;-57
2021/09/09 01:58:52;;;;;;;17.00;15.40;;;14.20;24.70;;;;;;5117945;28;20491;-56
2021/09/09 02:01:22;;;;;;;16.60;14.50;;;14.10;53.20;;;;;;5126099;27;20494;-57
2021/09/09 02:03:49;;;;;;;17.30;15.50;;;14.20;45.10;;;;;;5139031;27;20451;-57
2021/09/09 02:06:16;;;;;;;15.80;14.37;;;14.20;45.50;;;;;;5138464;27;20467;-56
2021/09/09 02:08:49;;;;;;;17.10;15.40;;;14.20;36.50;;;;;;5138568;27;20458;-56
2021/09/09 02:11:16;;;;;;;17.57;15.73;;;14.20;11.40;;;;;;5121121;27;20970;-57
2021/09/09 02:13:43;;;;;;;17.77;14.50;;;14.10;11.50;;;;;;5117621;28;20884;-57
2021/09/09 02:16:13;;;;;;;16.90;15.20;;;14.10;54.80;;;;;;5117525;28;20516;-56
2021/09/09 02:18:41;;;;;;;17.17;15.47;;;14.10;28.70;;;;;;5118145;28;20502;-57
2021/09/09 02:21:07;;;;;;;17.20;15.50;;;14.10;31.30;;;;;;5117732;28;20495;-57
2021/09/09 02:23:37;;;;;;;16.60;15.10;;;14.10;54.20;;;;;;5118291;28;20483;-57
2021/09/09 02:26:04;;;;;;;17.13;15.57;;;14.00;39.20;;;;;;5117845;28;20499;-56
2021/09/09 02:28:32;;;;;;;16.60;15.00;;;14.00;54.20;;;;;;5117544;28;20460;-56
2021/09/09 02:30:59;;;;;;;16.47;14.80;;;14.00;58.30;;;;;;5117657;28;20459;-56
2021/09/09 02:33:28;;;;;;;17.43;15.30;;;14.00;99.90;;;;;;5117072;28;20491;-56
2021/09/09 02:35:55;;;;;;;16.83;15.10;;;13.90;99.90;;;;;;5117844;28;20495;-52
2021/09/09 02:38:23;;;;;;;17.70;15.83;;;13.90;90.70;;;;;;5117482;28;20498;-57
2021/09/09 02:41:30;;;;;;;16.00;14.40;;;13.90;76.90;;;;;;5117371;28;20491;-55
2021/09/09 02:43:57;;;;;;;17.20;15.60;;;13.90;42.40;;;;;;5117116;28;20529;-56
2021/09/09 02:46:24;;;;;;;16.50;14.87;;;13.90;76.00;;;;;;5117375;28;20825;-54
2021/09/09 02:48:52;;;;;;;16.13;14.63;;;14.00;35.30;;;;;;5117407;28;20805;-57
2021/09/09 02:51:19;;;;;;;16.80;14.97;;;14.00;6.60;;;;;;5117407;28;20465;-56
2021/09/09 02:53:46;;;;;;;16.00;14.30;;;14.00;5.30;;;;;;5117983;28;20522;-56
2021/09/09 02:56:13;;;;;;;17.50;15.70;;;14.00;34.40;;;;;;5116895;28;20456;-53
2021/09/09 02:58:40;;;;;;;17.00;15.40;;;14.00;23.20;;;;;;5117237;28;20523;-56
2021/09/09 03:01:07;;;;;;;16.40;14.90;;;14.00;13.20;;;;;;5117272;28;20459;-57
2021/09/09 03:03:34;;;;;;;16.67;14.93;;;14.00;12.90;;;;;;5116956;28;20504;-57
2021/09/09 03:06:02;;;;;;;16.50;14.87;;;14.00;1.00;;;;;;5117426;28;20801;-56
2021/09/09 03:08:29;;;;;;;16.67;15.10;;;14.00;1.00;;;;;;5117355;28;20479;-56
2021/09/09 03:10:58;;;;;;;16.63;14.90;;;13.90;1.00;;;;;;5116920;28;20951;-57
2021/09/09 03:13:25;;;;;;;16.17;14.57;;;13.90;23.70;;;;;;5117592;28;20466;-57
2021/09/09 03:15:52;;;;;;;16.13;14.43;;;13.90;20.40;;;;;;5117341;28;20495;-57
2021/09/09 03:18:19;;;;;;;15.93;14.27;;;14.00;1.00;;;;;;5116491;28;20503;-57
2021/09/09 03:20:46;;;;;;;16.67;15.07;;;14.00;1.00;;;;;;5117100;28;20818;-57
2021/09/09 03:23:14;;;;;;;18.53;16.47;;;14.00;10.00;;;;;;5117218;28;20496;-57
2021/09/09 03:25:41;;;;;;;16.33;14.13;;;14.00;3.60;;;;;;5117026;28;20502;-57
2021/09/09 03:28:08;;;;;;;15.63;14.07;;;14.00;10.90;;;;;;5120838;28;20946;-55
2021/09/09 03:30:35;;;;;;;15.57;14.03;;;14.00;1.00;;;;;;5120640;28;20554;-56
2021/09/09 03:33:02;;;;;;;16.90;14.43;;;14.00;1.00;;;;;;5120975;27;20470;-57
2021/09/09 03:35:29;;;;;;;15.80;13.67;;;14.10;1.00;;;;;;5121204;28;20463;-55
2021/09/09 03:37:56;;;;;;;16.40;14.70;;;14.00;1.00;;;;;;5121432;28;20499;-55
2021/09/09 03:40:24;;;;;;;15.10;13.63;;;14.00;1.00;;;;;;5120941;28;20590;-55
2021/09/09 03:42:51;;;;;;;16.80;15.03;;;14.00;1.00;;;;;;5120919;28;20494;-57
2021/09/09 03:45:18;;;;;;;17.33;14.97;;;13.90;18.10;;;;;;5120822;28;20459;-57
2021/09/09 03:47:48;;;;;;;17.33;15.63;;;13.90;13.20;;;;;;5120978;28;20508;-57
2021/09/09 03:50:15;;;;;;;16.33;14.63;;;13.90;1.50;;;;;;5120521;27;20924;-57
2021/09/09 03:52:42;;;;;;;15.27;13.77;;;13.90;7.80;;;;;;5120520;28;20463;-57
2021/09/09 03:55:10;;;;;;;15.57;14.10;;;14.00;6.10;;;;;;5120742;28;20515;-57
2021/09/09 03:57:39;;;;;;;14.90;13.50;;;14.00;1.00;;;;;;5120509;28;20467;-57
2021/09/09 04:00:08;;;;;;;17.10;15.30;;;14.10;1.00;;;;;;5120740;28;20491;-59
2021/09/09 04:02:35;;;;;;;16.40;14.80;;;14.00;1.00;;;;;;5120749;28;20763;-59
2021/09/09 04:05:02;;;;;;;16.60;14.77;;;14.00;1.00;;;;;;5119896;28;20510;-57
2021/09/09 04:07:29;;;;;;;17.90;14.83;;;14.00;1.00;;;;;;5120245;28;20495;-57
2021/09/09 04:09:56;;;;;;;16.07;14.33;;;13.90;1.00;;;;;;5120033;28;20448;-57
2021/09/09 04:12:23;;;;;;;15.13;13.57;;;13.90;1.00;;;;;;5120524;28;20509;-57
2021/09/09 04:14:53;;;;;;;15.47;13.87;;;13.90;1.00;;;;;;5120158;28;20459;-53
2021/09/09 04:17:20;;;;;;;15.63;14.23;;;13.90;1.00;;;;;;5120324;28;20751;-57
2021/09/09 04:19:47;;;;;;;16.73;14.40;;;13.90;1.00;;;;;;5117810;28;20848;-54
2021/09/09 04:22:14;;;;;;;15.87;14.30;;;13.90;1.00;;;;;;5125164;27;20463;-53
2021/09/09 04:24:41;;;;;;;28.03;15.13;;;13.80;1.00;;;;;;5130695;27;20495;-57
2021/09/09 04:27:10;;;;;;;16.50;14.80;;;13.80;11.30;;;;;;5119449;28;20500;-53
2021/09/09 04:29:37;;;;;;;15.93;14.23;;;13.80;61.80;;;;;;5119879;28;20463;-57
2021/09/09 04:32:06;;;;;;;16.47;14.73;;;13.80;27.40;;;;;;5118754;28;20452;-57
2021/09/09 04:34:33;;;;;;;16.20;14.70;;;13.80;11.80;;;;;;5117419;28;20491;-56
2021/09/09 04:37:00;;;;;;;15.50;14.00;;;13.70;26.10;;;;;;5118637;28;20550;-57
2021/09/09 04:39:27;;;;;;;16.47;14.77;;;13.70;51.50;;;;;;5117965;28;20556;-57
2021/09/09 04:41:58;;;;;;;15.97;14.57;;;13.70;66.40;;;;;;5121533;27;20494;-57
2021/09/09 04:44:28;;;;;;;17.27;14.83;;;13.70;99.90;;;;;;5118565;28;20938;-57
2021/09/09 04:46:55;;;;;;;16.47;14.77;;;13.70;99.90;;;;;;5117802;28;20491;-57
2021/09/09 04:49:23;;;;;;;15.50;14.10;;;13.70;99.90;;;;;;5118820;28;20460;-57
2021/09/09 04:51:50;;;;;;;15.90;14.30;;;13.70;99.80;;;;;;5118516;28;20897;-57
2021/09/09 04:54:18;;;;;;;15.53;13.93;;;13.60;99.90;;;;;;5118810;28;20499;-57
2021/09/09 04:56:45;;;;;;;14.60;13.20;;;13.60;99.90;;;;;;5119221;28;20771;-57
2021/09/09 04:59:11;;;;;;;16.13;14.50;;;13.60;96.70;;;;;;5119146;28;20487;-57
2021/09/09 05:01:41;;;;;;;15.27;13.73;;;13.60;99.90;;;;;;5119490;28;20520;-57
2021/09/09 05:04:11;;;;;;;16.37;14.80;;;13.60;99.90;;;;;;5118795;28;20466;-57
2021/09/09 05:06:40;;;;;;;16.77;14.40;;;13.60;99.90;;;;;;5118944;28;20549;-57
2021/09/09 05:09:07;;;;;;;14.83;13.23;;;13.60;99.90;;;;;;5118668;28;20469;-57
2021/09/09 05:11:33;;;;;;;15.37;13.33;;;13.70;99.90;;;;;;5112496;28;20489;-57
2021/09/09 05:14:00;;;;;;;17.20;15.17;;;13.70;99.90;;;;;;5111344;28;20897;-56
2021/09/09 05:16:27;;;;;;;17.00;15.17;;;13.70;99.90;;;;;;5110092;28;20461;-57
2021/09/09 05:18:54;;;;;;;17.40;15.57;;;13.80;99.90;;;;;;5105698;28;20935;-57
2021/09/09 05:21:21;;;;;;;15.90;14.37;;;13.80;99.90;;;;;;5106871;28;20815;-57
2021/09/09 05:23:50;;;;;;;16.67;15.00;;;13.90;99.90;;;;;;5112394;28;20468;-57
2021/09/09 05:26:23;;;;;;;19.10;14.77;;;13.90;99.90;;;;;;5112054;28;20507;-57
2021/09/09 05:28:50;;;;;;;16.83;15.20;;;14.00;99.90;;;;;;5108530;28;20910;-57
2021/09/09 05:31:16;;;;;;;18.37;16.43;;;14.00;99.90;;;;;;5106952;28;20495;-57
2021/09/09 05:33:44;;;;;;;16.37;14.67;;;14.10;99.90;;;;;;5106695;28;20495;-57
2021/09/09 05:36:11;;;;;;;21.80;16.77;;;14.20;99.90;;;;;;5107964;28;20463;-58
2021/09/09 05:38:38;;;;;;;19.13;16.30;;;14.30;90.50;;;;;;5109725;28;20504;-57
2021/09/09 05:41:08;;;;;;;18.83;15.20;;;14.30;92.30;;;;;;5113263;28;20523;-58
2021/09/09 05:43:35;;;;;;;20.43;17.90;;;14.40;92.40;;;;;;5107325;28;20492;-58
2021/09/09 05:46:02;;;;;;;18.60;16.77;;;14.50;64.00;;;;;;5115509;28;20859;-58
2021/09/09 05:48:29;;;;;;;17.83;16.13;;;14.70;47.30;;;;;;5117997;28;20507;-58
2021/09/09 05:50:57;;;;;;;18.70;16.70;;;14.80;10.40;;;;;;5117226;28;20898;-58
2021/09/09 05:53:29;;;;;;;19.80;17.70;;;14.90;1.00;;;;;;5108407;28;20463;-58
2021/09/09 05:55:55;;;;;;;20.60;17.23;;;15.10;1.00;;;;;;5105161;28;20788;-58
2021/09/09 05:58:24;;;;;;;20.33;18.17;;;15.20;1.00;;;;;;5113679;28;20487;-55
2021/09/09 06:00:51;;;;;;;20.40;18.40;;;15.30;1.00;;;;;;5103819;28;20462;-58
2021/09/09 06:03:18;;;;;;;20.87;18.87;;;15.50;1.00;;;;;;5106689;28;20492;-57
2021/09/09 06:05:46;;;;;;;18.23;16.07;;;15.80;1.00;;;;;;5105555;28;20467;-58
2021/09/09 06:08:13;;;;;;;18.87;17.03;;;15.90;1.00;;;;;;5102750;28;20551;-57
2021/09/09 06:10:40;;;;;;;19.10;17.20;;;16.10;1.00;;;;;;5105004;28;20873;-58
2021/09/09 06:13:07;;;;;;;20.93;17.37;;;16.20;1.00;;;;;;5104223;28;20543;-57
2021/09/09 06:15:36;;;;;;;19.60;16.90;;;16.30;1.00;;;;;;5114480;28;20559;-57
2021/09/09 06:18:08;;;;;;;17.07;15.37;;;16.50;1.00;;;;;;5117167;28;20481;-58
2021/09/09 06:20:35;;;;;;;18.47;15.70;;;16.60;1.00;;;;;;5115152;28;20606;-58
2021/09/09 06:23:02;;;;;;;17.00;15.40;;;16.80;1.00;;;;;;5115008;28;20510;-57
2021/09/09 06:25:29;;;;;;;15.87;14.43;;;17.00;1.00;;;;;;5115769;28;20495;-58
2021/09/09 06:27:56;;;;;;;15.30;13.33;;;17.20;1.00;;;;;;5116382;28;20498;-57
2021/09/09 06:30:23;;;;;;;17.57;12.80;;;17.50;1.00;;;;;;5117123;28;20551;-57
2021/09/09 06:32:51;;;;;;;13.03;11.60;;;17.80;1.00;;;;;;5117400;28;20550;-58
2021/09/09 06:35:21;;;;;;;13.67;12.30;;;18.00;1.00;;;;;;5117149;28;20562;-57
2021/09/09 06:37:48;;;;;;;13.27;12.07;;;18.40;1.00;;;;;;5117954;28;20545;-54
2021/09/09 06:40:17;;;;;;;15.40;11.57;;;18.60;1.00;;;;;;5116173;28;20487;-57
2021/09/09 06:42:44;;;;;;;12.83;11.53;;;19.00;1.00;;;;;;5116261;28;20558;-57
2021/09/09 06:45:11;;;;;;;12.53;10.60;;;19.20;1.00;;;;;;5115884;28;20487;-56
2021/09/09 06:47:42;;;;;;;12.33;11.23;;;19.50;1.00;;;;;;5117058;28;20434;-53
2021/09/09 06:50:10;;;;;;;12.33;11.03;;;19.70;1.00;;;;;;5117081;28;20491;-55
2021/09/09 06:52:40;;;;;;;12.60;11.43;;;20.00;1.00;;;;;;5116781;28;20522;-57
2021/09/09 06:55:08;;;;;;;17.30;11.87;;;20.20;1.00;;;;;;5116692;28;20495;-56
2021/09/09 06:57:35;;;;;;;11.77;10.67;;;20.30;1.00;;;;;;5117144;28;20467;-54
2021/09/09 07:00:03;;;;;;;11.50;10.50;;;20.50;1.00;;;;;;5117965;28;20600;-52
2021/09/09 07:02:30;;;;;;;12.73;11.43;;;20.60;1.00;;;;;;5121197;28;20467;-52
2021/09/09 07:04:57;;;;;;;11.83;10.80;;;20.80;1.00;;;;;;5121229;28;20470;-52
2021/09/09 07:07:26;;;;;;;10.67;9.63;;;21.00;1.00;;;;;;5121368;28;20523;-53
2021/09/09 07:09:52;;;;;;;12.00;10.90;;;21.20;99.90;;;;;;5120456;28;20546;-56
2021/09/09 07:12:22;;;;;;;12.83;11.43;;;21.50;99.90;;;;;;5120604;28;20882;-56
2021/09/09 07:14:49;;;;;;;11.40;10.30;;;21.70;99.90;;;;;;5134039;27;20462;-56
2021/09/09 07:17:16;;;;;;;12.17;10.90;;;22.00;99.90;;;;;;5121024;28;20463;-55
2021/09/09 07:19:43;;;;;;;11.37;10.27;;;22.20;99.90;;;;;;5121007;28;21011;-55
2021/09/09 07:22:10;;;;;;;11.20;10.20;;;22.40;99.90;;;;;;5120339;28;20554;-53
2021/09/09 07:24:39;;;;;;;12.00;10.73;;;22.50;99.90;;;;;;5120534;28;20947;-56
2021/09/09 07:27:06;;;;;;;11.43;10.37;;;22.60;99.90;;;;;;5119707;28;20498;-56
2021/09/09 07:29:34;;;;;;;12.27;11.17;;;22.80;99.90;;;;;;5121325;28;20494;-55
2021/09/09 07:32:01;;;;;;;11.67;10.67;;;23.00;99.90;;;;;;5120026;28;20460;-53
2021/09/09 07:34:29;;;;;;;11.00;9.87;;;23.10;99.90;;;;;;5120474;28;20869;-52
2021/09/09 07:36:57;;;;;;;10.80;9.90;;;23.40;99.90;;;;;;5120158;28;21027;-52
2021/09/09 07:39:23;;;;;;;11.47;10.10;;;23.70;99.90;;;;;;5116952;28;20818;-50
2021/09/09 07:41:59;;;;;;;11.53;10.40;;;23.90;99.90;;;;;;5120371;28;20516;-49
2021/09/09 07:44:26;;;;;;;10.97;9.97;;;24.30;99.90;;;;;;5120036;28;20585;-52
2021/09/09 07:46:53;;;;;;;10.90;10.00;;;24.40;99.90;;;;;;5119275;28;20953;-49
2021/09/09 07:49:20;;;;;;;12.60;11.37;;;24.30;99.90;;;;;;5120341;28;20467;-52
2021/09/09 07:51:48;;;;;;;12.60;11.30;;;24.20;99.90;;;;;;5122206;27;20538;-51
2021/09/09 07:54:16;;;;;;;10.57;9.67;;;24.30;99.90;;;;;;5137806;27;20471;-46
2021/09/09 07:56:44;;;;;;;11.10;10.10;;;24.40;99.90;;;;;;5121258;27;20463;-55
2021/09/09 07:59:14;;;;;;;12.13;11.03;;;24.40;99.90;;;;;;5119246;28;20588;-55
2021/09/09 08:01:44;;;;;;;10.70;9.70;;;24.50;99.90;;;;;;5120417;28;20649;-54
2021/09/09 08:04:15;;;;;;;11.30;10.10;;;24.50;99.90;;;;;;5119960;28;20471;-56
2021/09/09 08:06:43;;;;;;;10.63;9.73;;;24.50;99.90;;;;;;5127938;27;20462;-55
2021/09/09 08:09:12;;;;;;;10.90;10.00;;;24.80;99.90;;;;;;5118364;28;20473;-51
2021/09/09 08:11:42;;;;;;;11.37;10.20;;;24.80;99.90;;;;;;5119397;28;20458;-47
2021/09/09 08:14:09;;;;;;;12.00;10.80;;;25.00;99.90;;;;;;5119515;28;20831;-49
2021/09/09 08:16:37;;;;;;;10.67;9.67;;;25.30;99.90;;;;;;5119647;28;20487;-50
2021/09/09 08:19:08;;;;;;;10.57;9.50;;;25.30;99.90;;;;;;5119841;28;20498;-54
2021/09/09 08:21:38;;;;;;;11.77;10.03;;;25.50;99.90;;;;;;5119934;28;20495;-56
2021/09/09 08:24:07;;;;;;;11.80;10.80;;;25.90;99.90;;;;;;5119926;28;20454;-56
2021/09/09 08:26:35;;;;;;;11.10;9.80;;;26.10;99.90;;;;;;5119605;27;20846;-54
2021/09/09 08:29:02;;;;;;;10.83;9.70;;;26.00;99.90;;;;;;5099339;28;20487;-48
2021/09/09 08:31:34;;;;;;;10.87;9.87;;;26.20;99.90;;;;;;5120647;27;20486;-49
2021/09/09 08:34:03;;;;;;;11.60;10.43;;;26.50;99.90;;;;;;5117202;28;21223;-48
2021/09/09 08:36:30;;;;;;;10.70;9.60;;;26.60;99.90;;;;;;5117912;28;20455;-46
2021/09/09 08:38:56;;;;;;;10.33;9.40;;;26.90;99.90;;;;;;5118500;28;20543;-49
2021/09/09 08:41:23;;;;;;;10.27;9.47;;;26.80;99.90;;;;;;5117805;28;21016;-46
2021/09/09 08:43:50;;;;;;;11.57;10.50;;;27.00;99.90;;;;;;5118066;28;20583;-52
2021/09/09 08:46:18;;;;;;;11.07;9.13;;;27.00;99.90;;;;;;5117950;28;20941;-56
2021/09/09 08:48:46;;;;;;;9.47;8.57;;;27.30;99.90;;;;;;5117974;28;20479;-54
2021/09/09 08:51:16;;;;;;;10.53;9.40;;;27.40;99.90;;;;;;5115281;28;20890;-56
2021/09/09 08:53:46;;;;;;;10.60;9.60;;;27.60;99.90;;;;;;5118325;28;20874;-55
2021/09/09 08:56:14;;;;;;;10.40;9.50;;;27.60;99.90;;;;;;5114643;28;20508;-55
2021/09/09 08:58:41;;;;;;;11.03;10.10;;;27.40;99.90;;;;;;5118209;28;20502;-55
2021/09/09 09:01:11;;;;;;;11.77;9.80;;;27.50;99.90;;;;;;5118016;28;20570;-52
2021/09/09 09:03:51;;;;;;;10.90;10.00;;;27.30;99.90;;;;;;5117327;28;20456;-53
2021/09/09 09:06:39;;;;;;;11.37;10.30;;;27.40;99.90;;;;;;5115952;28;20930;-55
2021/09/09 09:09:13;;;;;;;10.47;9.67;;;27.40;99.90;;;;;;5116469;28;20882;-53
2021/09/09 09:11:42;;;;;;;11.37;10.23;;;27.50;99.90;;;;;;5118634;28;20459;-53
2021/09/09 09:14:11;;;;;;;11.20;10.03;;;27.80;99.90;;;;;;5118377;28;20470;-55
2021/09/09 09:16:45;;;;;;;10.30;9.57;;;28.00;99.90;;;;;;5118423;28;20521;-53
2021/09/09 09:19:13;;;;;;;12.50;10.00;;;28.20;99.90;;;;;;5119303;27;20568;-55
2021/09/09 09:21:46;;;;;;;10.87;9.87;;;28.20;99.90;;;;;;5118378;28;20544;-53
2021/09/09 09:24:19;;;;;;;10.50;9.40;;;28.40;99.90;;;;;;5115447;28;20466;-52
2021/09/09 09:27:07;;;;;;;10.70;9.70;;;28.50;99.90;;;;;;5116154;28;20503;-55
2021/09/09 09:29:34;;;;;;;10.00;9.10;;;28.60;99.90;;;;;;5117289;28;20455;-55
2021/09/09 09:32:17;;;;;;;11.40;10.20;;;28.60;99.90;;;;;;5117777;28;20820;-55
2021/09/09 09:34:46;;;;;;;10.63;9.53;;;28.60;99.90;;;;;;5115814;28;20512;-49
2021/09/09 09:37:23;;;;;;;10.70;9.80;;;28.60;99.90;;;;;;5116944;28;20497;-53
2021/09/09 09:39:50;;;;;;;13.93;9.47;;;28.80;99.90;;;;;;5118016;28;20451;-56
2021/09/09 09:42:25;;;;;;;11.53;10.07;;;28.90;99.90;;;;;;5121011;27;21005;-55
2021/09/09 09:44:52;;;;;;;9.97;8.97;;;29.10;99.90;;;;;;5117900;28;20483;-55
2021/09/09 09:47:22;;;;;;;10.50;9.57;;;29.40;99.90;;;;;;5118393;28;20831;-55
2021/09/09 09:49:50;;;;;;;8.73;8.07;;;29.40;99.90;;;;;;5118336;27;20503;-53
2021/09/09 09:52:29;;;;;;;11.10;10.00;;;29.80;99.90;;;;;;5125440;27;20529;-52
2021/09/09 09:54:57;;;;;;;10.20;9.20;;;29.80;99.90;;;;;;5117868;28;20485;-51
2021/09/09 09:57:26;;;;;;;11.33;9.23;;;29.60;99.90;;;;;;5118181;27;20463;-52
2021/09/09 09:59:56;;;;;;;12.60;9.70;;;29.60;99.90;;;;;;5118502;28;20490;-50
2021/09/09 10:02:28;;;;;;;10.67;9.77;;;29.80;99.90;;;;;;5121086;27;20574;-46
2021/09/09 10:04:59;;;;;;;10.23;9.20;;;29.90;99.90;;;;;;5118021;28;20494;-49
2021/09/09 10:07:29;;;;;;;10.27;9.37;;;30.20;99.90;;;;;;5115908;28;20488;-54
2021/09/09 10:09:56;;;;;;;10.00;9.00;;;30.40;99.90;;;;;;5117413;28;20793;-53
2021/09/09 10:12:26;;;;;;;10.47;9.63;;;30.30;99.90;;;;;;5117739;28;20453;-54
2021/09/09 10:14:55;;;;;;;12.60;9.37;;;30.60;99.90;;;;;;5117555;28;20460;-49
2021/09/09 10:17:24;;;;;;;10.73;9.70;;;30.70;99.90;;;;;;5117805;28;20464;-50
2021/09/09 10:19:51;;;;;;;10.70;9.77;;;30.90;99.90;;;;;;5117649;28;20798;-56
2021/09/09 10:22:20;;;;;;;10.47;9.47;;;31.00;99.90;;;;;;5121324;27;20532;-55
2021/09/09 10:24:50;;;;;;;13.07;10.60;;;30.70;99.90;;;;;;5117713;28;20528;-56
2021/09/09 10:27:43;;;;;;;17.73;10.13;;;30.50;99.90;;;;;;5117542;28;20524;-53
2021/09/09 10:30:19;;;;;;;14.80;9.67;;;30.90;99.90;;;;;;5110505;28;20455;-52
2021/09/09 10:33:06;;;;;;;11.00;9.93;;;31.00;99.90;;;;;;5117472;28;20455;-52
2021/09/09 10:35:41;;;;;;;32.13;13.10;;;31.20;99.90;;;;;;5117131;28;20539;-51
2021/09/09 10:38:29;;;;;;;16.93;8.90;;;30.80;99.90;;;;;;5117079;28;20553;-49
2021/09/09 10:40:59;;;;;;;15.77;10.17;;;30.80;99.90;;;;;;5107636;28;20572;-53
2021/09/09 10:43:50;;;;;;;10.97;9.87;;;30.90;99.90;;;;;;5116900;28;20483;-49
2021/09/09 10:46:19;;;;;;;9.87;9.07;;;31.10;99.90;;;;;;5113403;28;20915;-54
2021/09/09 10:49:26;;;;;;;21.40;10.70;;;31.50;99.90;;;;;;5116785;28;20504;-56
2021/09/09 10:52:10;;;;;;;10.33;9.43;;;31.60;99.90;;;;;;5115481;28;20475;-55
2021/09/09 10:55:10;;;;;;;9.57;8.73;;;31.30;99.90;;;;;;5119563;28;20456;-53
2021/09/09 10:57:39;;;;;;;10.37;9.50;;;31.40;99.90;;;;;;5113911;28;20543;-56
2021/09/09 11:00:07;;;;;;;10.53;9.60;;;31.40;99.90;;;;;;5111994;28;20459;-54
2021/09/09 11:02:34;;;;;;;10.20;9.40;;;31.40;99.90;;;;;;5115110;28;20524;-52
2021/09/09 11:05:05;;;;;;;9.90;8.90;;;31.30;99.90;;;;;;5107028;28;20495;-54
2021/09/09 11:07:32;;;;;;;10.50;9.53;;;31.40;99.90;;;;;;5110542;28;20479;-52
2021/09/09 11:10:08;;;;;;;9.27;8.47;;;31.50;99.90;;;;;;5115035;28;20456;-50
2021/09/09 11:12:40;;;;;;;11.53;10.40;;;31.80;99.90;;;;;;5110895;28;20455;-53
2021/09/09 11:15:10;;;;;;;10.33;9.40;;;31.60;99.90;;;;;;5115834;28;20546;-53
2021/09/09 11:17:38;;;;;;;11.00;9.90;;;31.70;99.90;;;;;;5114004;28;20560;-56
2021/09/09 11:20:07;;;;;;;11.77;10.63;;;31.80;99.90;;;;;;5111510;28;21102;-56
2021/09/09 11:22:38;;;;;;;11.63;9.57;;;31.90;99.90;;;;;;5113116;28;20498;-56
2021/09/09 11:25:21;;;;;;;10.33;9.30;;;32.20;99.90;;;;;;5110069;28;20912;-57
2021/09/09 11:27:49;;;;;;;13.30;10.00;;;32.30;99.90;;;;;;5111311;28;20543;-51
2021/09/09 11:30:20;;;;;;;11.43;10.53;;;31.70;99.90;;;;;;5115749;28;20550;-51
2021/09/09 11:33:06;;;;;;;10.80;9.87;;;31.40;99.90;;;;;;5116510;28;20802;-52
2021/09/09 11:35:33;;;;;;;11.60;10.60;;;31.00;99.90;;;;;;5117288;28;20452;-55
2021/09/09 11:38:00;;;;;;;12.10;11.10;;;31.40;99.90;;;;;;5117581;28;20459;-49
2021/09/09 11:40:27;;;;;;;9.90;9.00;;;31.30;99.90;;;;;;5133149;27;20844;-53
2021/09/09 11:43:03;;;;;;;10.97;9.97;;;31.10;99.90;;;;;;5116966;28;20585;-55
2021/09/09 11:45:33;;;;;;;12.10;11.00;;;31.10;99.90;;;;;;5102041;28;20967;-53
2021/09/09 11:48:04;;;;;;;10.13;9.30;;;31.20;99.90;;;;;;5118599;28;20878;-56
2021/09/09 11:50:45;;;;;;;12.17;11.07;;;31.40;99.90;;;;;;5121067;28;20762;-54
2021/09/09 11:53:12;;;;;;;10.93;9.37;;;31.40;99.90;;;;;;5119966;28;20490;-50
2021/09/09 11:55:44;;;;;;;11.90;10.93;;;30.90;99.90;;;;;;5120515;28;20885;-53
2021/09/09 11:58:31;;;;;;;12.43;10.90;;;30.30;99.90;;;;;;5120469;27;20451;-53
2021/09/09 12:01:00;;;;;;;12.07;10.77;;;29.80;99.90;;;;;;5120514;28;20550;-56
2021/09/09 12:03:32;;;;;;;14.27;10.80;;;29.80;99.90;;;;;;5119349;28;20936;-56
2021/09/09 12:05:59;;;;;;;14.27;11.20;;;29.80;99.90;;;;;;5118026;28;20459;-54
2021/09/09 12:08:26;;;;;;;12.50;11.10;;;29.60;99.90;;;;;;5119802;28;20896;-47
2021/09/09 12:11:10;;;;;;;12.00;10.90;;;29.40;99.90;;;;;;5119700;28;20538;-55
2021/09/09 12:13:44;;;;;;;11.30;10.20;;;29.20;99.90;;;;;;5119370;28;20518;-56
2021/09/09 12:16:15;;;;;;;13.67;10.00;;;28.90;99.90;;;;;;5119175;28;20467;-56
2021/09/09 12:18:46;;;;;;;11.27;10.27;;;29.00;99.90;;;;;;5119749;28;20467;-55
2021/09/09 12:21:17;;;;;;;11.47;10.40;;;29.40;99.90;;;;;;5119435;28;20937;-53
2021/09/09 12:24:12;;;;;;;10.77;9.57;;;30.30;99.90;;;;;;5117615;28;20762;-53
2021/09/09 12:26:50;;;;;;;11.33;10.33;;;31.10;99.90;;;;;;5071440;28;20475;-54
2021/09/09 12:29:20;;;;;;;10.70;9.70;;;31.40;99.90;;;;;;5119259;28;20463;-54
2021/09/09 12:31:49;;;;;;;11.57;10.37;;;31.10;99.90;;;;;;5118866;28;20488;-55
2021/09/09 12:34:22;;;;;;;14.80;9.83;;;31.10;99.90;;;;;;5119197;28;20964;-56
2021/09/09 12:36:55;;;;;;;14.80;10.77;;;30.20;99.90;;;;;;5113194;28;20774;-55
2021/09/09 12:39:22;;;;;;;13.50;11.37;;;29.60;99.90;;;;;;5102200;28;20490;-52
2021/09/09 12:41:49;;;;;;;12.67;11.47;;;28.90;99.90;;;;;;5100874;28;20583;-52